Time;durP1;ratioP1;P1;durP2;ratioP2;P2;SDS_P1;SDS_P2;PMS_P1;PMS_P2;Temp;Humidity;BMP_temperature;BMP_pressure;BME280_temperature;BME280_humidity;BME280_pressure;Samples;Min_cycle;Max_cycle;Signal;HPM_P1;HPM_P2
2023/04/28 00:00:28;;;;;;;;;;;;;;;;;;4984541;28;19933;-63
2023/04/28 00:02:54;;;;;;;;;;;;;;;;;;4983988;28;19926;-64
2023/04/28 00:05:22;;;;;;;;;;;;;;;;;;4967239;28;20001;-64
2023/04/28 00:07:48;;;;;;;;;;;;;;;;;;4984439;28;19933;-63
2023/04/28 00:10:14;;;;;;;;;;;;;;;;;;4983852;28;19921;-63
2023/04/28 00:12:40;;;;;;;;;;;;;;;;;;4984494;28;20545;-64
2023/04/28 00:15:06;;;;;;;;;;;;;;;;;;4984285;28;20300;-64
2023/04/28 00:17:32;;;;;;;;;;;;;;;;;;4984484;28;19921;-63
2023/04/28 00:19:58;;;;;;;;;;;;;;;;;;4984072;28;19922;-63
2023/04/28 00:22:24;;;;;;;;;;;;;;;;;;4984344;28;20001;-63
2023/04/28 00:24:50;;;;;;;;;;;;;;;;;;4983535;28;20383;-64
2023/04/28 00:27:16;;;;;;;;;;;;;;;;;;4984678;28;19921;-63
2023/04/28 00:29:42;;;;;;;;;;;;;;;;;;4987660;28;19921;-63
2023/04/28 00:32:08;;;;;;;;;;;;;;;;;;4971366;28;20731;-63
2023/04/28 00:34:36;;;;;;;;;;;;;;;;;;4988337;28;19925;-63
2023/04/28 00:37:02;;;;;;;;;;;;;;;;;;4988912;28;19921;-63
2023/04/28 00:39:28;;;;;;;;;;;;;;;;;;4988370;28;19922;-63
2023/04/28 00:41:54;;;;;;;;;;;;;;;;;;4986554;28;19922;-63
2023/04/28 00:44:20;;;;;;;;;;;;;;;;;;4988262;28;19918;-63
2023/04/28 00:46:46;;;;;;;;;;;;;;;;;;4988101;28;20525;-63
2023/04/28 00:49:12;;;;;;;;;;;;;;;;;;4988398;28;19922;-62
2023/04/28 00:51:38;;;;;;;;;;;;;;;;;;4970360;28;19941;-62
2023/04/28 00:54:04;;;;;;;;;;;;;;;;;;4988299;28;19929;-62
2023/04/28 00:56:30;;;;;;;;;;;;;;;;;;4970149;28;19921;-62
2023/04/28 00:58:56;;;;;;;;;;;;;;;;;;4986156;28;19922;-62
2023/04/28 01:01:22;;;;;;;;;;;;;;;;;;4987263;28;20283;-62
2023/04/28 01:03:48;;;;;;;;;;;;;;;;;;4987582;28;19929;-61
2023/04/28 01:06:14;;;;;;;;;;;;;;;;;;4988053;28;19929;-62
2023/04/28 01:08:41;;;;;;;;;;;;;;;;;;4987589;28;20331;-62
2023/04/28 01:11:09;;;;;;;;;;;;;;;;;;4986472;28;19972;-62
2023/04/28 01:16:14;;;;;;;;;;;;;;;;;;4977529;23;19929;-62
2023/04/28 01:18:40;;;;;;;;;;;;;;;;;;4986703;28;20485;-62
2023/04/28 01:21:06;;;;;;;;;;;;;;;;;;4979980;28;19978;-61
2023/04/28 01:23:32;;;;;;;;;;;;;;;;;;4974607;28;20401;-61
2023/04/28 01:25:58;;;;;;;;;;;;;;;;;;4973935;28;19926;-61
2023/04/28 01:28:24;;;;;;;;;;;;;;;;;;4972231;28;19929;-62
2023/04/28 01:30:50;;;;;;;;;;;;;;;;;;4985211;28;20387;-62
2023/04/28 01:33:16;;;;;;;;;;;;;;;;;;4984118;28;19921;-62
2023/04/28 01:35:42;;;;;;;;;;;;;;;;;;4967377;28;19922;-62
2023/04/28 01:38:08;;;;;;;;;;;;;;;;;;4966493;28;20555;-62
2023/04/28 01:40:34;;;;;;;;;;;;;;;;;;4984907;28;20180;-62
2023/04/28 01:43:00;;;;;;;;;;;;;;;;;;4987085;28;19921;-62
2023/04/28 01:45:26;;;;;;;;;;;;;;;;;;4986578;28;19922;-62
2023/04/28 01:47:52;;;;;;;;;;;;;;;;;;4985578;28;19930;-62
2023/04/28 01:50:18;;;;;;;;;;;;;;;;;;4983022;28;19944;-62
2023/04/28 01:52:44;;;;;;;;;;;;;;;;;;4973669;28;19922;-62
2023/04/28 01:55:10;;;;;;;;;;;;;;;;;;4985934;28;20381;-62
2023/04/28 01:57:36;;;;;;;;;;;;;;;;;;4985001;28;19917;-61
2023/04/28 02:00:02;;;;;;;;;;;;;;;;;;4987380;28;19949;-61
2023/04/28 02:02:28;;;;;;;;;;;;;;;;;;4985664;28;20386;-62
2023/04/28 02:04:54;;;;;;;;;;;;;;;;;;4986021;28;19921;-61
2023/04/28 02:07:20;;;;;;;;;;;;;;;;;;4984981;28;19922;-61
2023/04/28 02:09:46;;;;;;;;;;;;;;;;;;4985426;28;19957;-61
2023/04/28 02:12:12;;;;;;;;;;;;;;;;;;4986113;28;20395;-62
2023/04/28 02:14:38;;;;;;;;;;;;;;;;;;4986268;28;19926;-62
2023/04/28 02:17:04;;;;;;;;;;;;;;;;;;4985207;28;20438;-62
2023/04/28 02:19:30;;;;;;;;;;;;;;;;;;4986081;28;20020;-62
2023/04/28 02:21:56;;;;;;;;;;;;;;;;;;4986230;28;19929;-61
2023/04/28 02:24:22;;;;;;;;;;;;;;;;;;4982629;28;20575;-61
2023/04/28 02:26:48;;;;;;;;;;;;;;;;;;4974313;28;19980;-61
2023/04/28 02:29:14;;;;;;;;;;;;;;;;;;4984813;28;19922;-61
2023/04/28 02:31:40;;;;;;;;;;;;;;;;;;4984535;28;20004;-61
2023/04/28 02:34:06;;;;;;;;;;;;;;;;;;4986385;28;20021;-62
2023/04/28 02:36:32;;;;;;;;;;;;;;;;;;4986488;28;20540;-61
2023/04/28 02:38:58;;;;;;;;;;;;;;;;;;4985740;28;19980;-61
2023/04/28 02:41:25;;;;;;;;;;;;;;;;;;4984768;28;19922;-61
2023/04/28 02:43:51;;;;;;;;;;;;;;;;;;4985981;28;19922;-61
2023/04/28 02:46:17;;;;;;;;;;;;;;;;;;4986252;28;20749;-60
2023/04/28 02:48:43;;;;;;;;;;;;;;;;;;4984686;28;19929;-60
2023/04/28 02:51:09;;;;;;;;;;;;;;;;;;4985323;28;20017;-61
2023/04/28 02:53:35;;;;;;;;;;;;;;;;;;4985820;28;19925;-61
2023/04/28 02:56:03;;;;;;;;;;;;;;;;;;4985378;28;19925;-60
2023/04/28 02:58:29;;;;;;;;;;;;;;;;;;4985485;28;19917;-60
2023/04/28 03:00:55;;;;;;;;;;;;;;;;;;4985386;28;20236;-60
2023/04/28 03:03:21;;;;;;;;;;;;;;;;;;4985802;28;19925;-61
2023/04/28 03:05:47;;;;;;;;;;;;;;;;;;4985088;28;19921;-61
2023/04/28 03:08:13;;;;;;;;;;;;;;;;;;4984611;28;19968;-61
2023/04/28 03:10:39;;;;;;;;;;;;;;;;;;4984092;28;19924;-61
2023/04/28 03:13:05;;;;;;;;;;;;;;;;;;4985690;28;19922;-62
2023/04/28 03:15:31;;;;;;;;;;;;;;;;;;4985194;28;20065;-61
2023/04/28 03:17:57;;;;;;;;;;;;;;;;;;4984839;28;20397;-61
2023/04/28 03:20:23;;;;;;;;;;;;;;;;;;4985094;28;19922;-61
2023/04/28 03:22:49;;;;;;;;;;;;;;;;;;4985022;28;19961;-61
2023/04/28 03:25:15;;;;;;;;;;;;;;;;;;4974792;28;19922;-61
2023/04/28 03:27:41;;;;;;;;;;;;;;;;;;4980043;28;20358;-61
2023/04/28 03:30:07;;;;;;;;;;;;;;;;;;4967735;28;19922;-61
2023/04/28 03:32:33;;;;;;;;;;;;;;;;;;4985604;28;19922;-61
2023/04/28 03:34:59;;;;;;;;;;;;;;;;;;4984595;28;19928;-61
2023/04/28 03:37:25;;;;;;;;;;;;;;;;;;4983645;28;19932;-61
2023/04/28 03:39:51;;;;;;;;;;;;;;;;;;4981988;28;19925;-61
2023/04/28 03:42:17;;;;;;;;;;;;;;;;;;4985305;28;19925;-61
2023/04/28 03:44:43;;;;;;;;;;;;;;;;;;4984719;28;19932;-61
2023/04/28 03:47:09;;;;;;;;;;;;;;;;;;4983623;28;20004;-61
2023/04/28 03:49:35;;;;;;;;;;;;;;;;;;4984819;28;19921;-66
2023/04/28 03:52:03;;;;;;;;;;;;;;;;;;4985017;28;19926;-62
2023/04/28 03:54:29;;;;;;;;;;;;;;;;;;4982665;28;20390;-62
2023/04/28 03:56:56;;;;;;;;;;;;;;;;;;4984282;28;19957;-61
2023/04/28 03:59:22;;;;;;;;;;;;;;;;;;4983336;28;19921;-61
2023/04/28 04:01:48;;;;;;;;;;;;;;;;;;4984303;28;19932;-62
2023/04/28 04:04:14;;;;;;;;;;;;;;;;;;4984037;28;19928;-61
2023/04/28 04:06:40;;;;;;;;;;;;;;;;;;4984321;28;19929;-61
2023/04/28 04:09:06;;;;;;;;;;;;;;;;;;4983628;28;20467;-61
2023/04/28 04:11:32;;;;;;;;;;;;;;;;;;4985261;28;19928;-62
2023/04/28 04:13:58;;;;;;;;;;;;;;;;;;4984196;28;20383;-63
2023/04/28 04:16:24;;;;;;;;;;;;;;;;;;4977930;28;20029;-62
2023/04/28 04:18:50;;;;;;;;;;;;;;;;;;4975039;28;20385;-61
2023/04/28 04:21:16;;;;;;;;;;;;;;;;;;4971400;28;20016;-62
2023/04/28 04:23:42;;;;;;;;;;;;;;;;;;4980696;28;19952;-63
2023/04/28 04:26:08;;;;;;;;;;;;;;;;;;4970025;28;19926;-62
2023/04/28 04:28:34;;;;;;;;;;;;;;;;;;4980607;28;20020;-65
2023/04/28 04:31:01;;;;;;;;;;;;;;;;;;4980936;28;19926;-64
2023/04/28 04:33:27;;;;;;;;;;;;;;;;;;4981425;28;20016;-63
2023/04/28 04:35:53;;;;;;;;;;;;;;;;;;4970936;28;19972;-62
2023/04/28 04:38:19;;;;;;;;;;;;;;;;;;4966644;28;20433;-62
2023/04/28 04:40:45;;;;;;;;;;;;;;;;;;4966217;28;19922;-62
2023/04/28 04:43:11;;;;;;;;;;;;;;;;;;4974910;28;20372;-62
2023/04/28 04:45:38;;;;;;;;;;;;;;;;;;4969388;28;19979;-63
2023/04/28 04:48:04;;;;;;;;;;;;;;;;;;4976536;28;20052;-63
2023/04/28 04:50:30;;;;;;;;;;;;;;;;;;4971830;28;20401;-62
2023/04/28 04:52:57;;;;;;;;;;;;;;;;;;4972543;28;19968;-63
2023/04/28 04:55:23;;;;;;;;;;;;;;;;;;4971459;28;19922;-63
2023/04/28 04:57:49;;;;;;;;;;;;;;;;;;4976076;28;19922;-62
2023/04/28 05:00:15;;;;;;;;;;;;;;;;;;4976177;28;19976;-63
2023/04/28 05:02:41;;;;;;;;;;;;;;;;;;4977956;28;19922;-63
2023/04/28 05:05:07;;;;;;;;;;;;;;;;;;4968509;28;20322;-63
2023/04/28 05:07:33;;;;;;;;;;;;;;;;;;4972837;28;19929;-63
2023/04/28 05:09:59;;;;;;;;;;;;;;;;;;4965600;28;19922;-61
2023/04/28 05:12:26;;;;;;;;;;;;;;;;;;4967992;28;19926;-62
2023/04/28 05:14:53;;;;;;;;;;;;;;;;;;4973613;28;19972;-62
2023/04/28 05:17:18;;;;;;;;;;;;;;;;;;4975602;28;19976;-61
2023/04/28 05:19:45;;;;;;;;;;;;;;;;;;4974240;28;20319;-61
2023/04/28 05:22:11;;;;;;;;;;;;;;;;;;4977938;28;20421;-61
2023/04/28 05:24:37;;;;;;;;;;;;;;;;;;4980123;28;19925;-61
2023/04/28 05:27:03;;;;;;;;;;;;;;;;;;4977631;28;19929;-61
2023/04/28 05:29:29;;;;;;;;;;;;;;;;;;4986732;28;19926;-61
2023/04/28 05:31:55;;;;;;;;;;;;;;;;;;4985564;28;20426;-61
2023/04/28 05:34:21;;;;;;;;;;;;;;;;;;4982571;28;19929;-62
2023/04/28 05:36:47;;;;;;;;;;;;;;;;;;4971392;28;19949;-62
2023/04/28 05:39:13;;;;;;;;;;;;;;;;;;4972320;28;19922;-64
2023/04/28 05:41:39;;;;;;;;;;;;;;;;;;4973518;28;19922;-64
2023/04/28 05:44:05;;;;;;;;;;;;;;;;;;4971520;28;20388;-64
2023/04/28 05:46:31;;;;;;;;;;;;;;;;;;4973226;28;19922;-64
2023/04/28 05:48:57;;;;;;;;;;;;;;;;;;4971328;28;20338;-61
2023/04/28 05:51:23;;;;;;;;;;;;;;;;;;4978395;28;19922;-65
2023/04/28 05:53:49;;;;;;;;;;;;;;;;;;4967958;28;19922;-64
2023/04/28 05:56:15;;;;;;;;;;;;;;;;;;4977611;28;19989;-63
2023/04/28 05:58:43;;;;;;;;;;;;;;;;;;4982114;28;20559;-64
2023/04/28 06:01:09;;;;;;;;;;;;;;;;;;4986226;28;19921;-65
2023/04/28 06:03:35;;;;;;;;;;;;;;;;;;4984750;28;19928;-65
2023/04/28 06:06:02;;;;;;;;;;;;;;;;;;4983854;28;19921;-65
2023/04/28 06:08:29;;;;;;;;;;;;;;;;;;4982098;28;19922;-65
2023/04/28 06:10:55;;;;;;;;;;;;;;;;;;4985031;28;19988;-65
2023/04/28 06:13:21;;;;;;;;;;;;;;;;;;4984695;28;19922;-65
2023/04/28 06:15:47;;;;;;;;;;;;;;;;;;4980157;28;19975;-65
2023/04/28 06:18:15;;;;;;;;;;;;;;;;;;4979529;28;19925;-65
2023/04/28 06:20:41;;;;;;;;;;;;;;;;;;4983634;28;20359;-65
2023/04/28 06:23:07;;;;;;;;;;;;;;;;;;4983923;28;20376;-64
2023/04/28 06:25:33;;;;;;;;;;;;;;;;;;4983874;28;19917;-59
2023/04/28 06:27:59;;;;;;;;;;;;;;;;;;4986177;28;20291;-60
2023/04/28 06:30:25;;;;;;;;;;;;;;;;;;4985587;28;19926;-60
2023/04/28 06:32:51;;;;;;;;;;;;;;;;;;4985920;28;19929;-60
2023/04/28 06:35:17;;;;;;;;;;;;;;;;;;4985428;28;19933;-60
2023/04/28 06:37:43;;;;;;;;;;;;;;;;;;4985086;28;19917;-60
2023/04/28 06:40:09;;;;;;;;;;;;;;;;;;4985397;28;20402;-60
2023/04/28 06:42:35;;;;;;;;;;;;;;;;;;4985895;28;20004;-61
2023/04/28 06:45:01;;;;;;;;;;;;;;;;;;4986193;28;20399;-60
2023/04/28 06:47:27;;;;;;;;;;;;;;;;;;4986185;28;19926;-61
2023/04/28 06:49:54;;;;;;;;;;;;;;;;;;4985205;28;19918;-60
2023/04/28 06:52:21;;;;;;;;;;;;;;;;;;4984703;28;19928;-60
2023/04/28 06:54:47;;;;;;;;;;;;;;;;;;4983709;28;19922;-60
2023/04/28 06:57:13;;;;;;;;;;;;;;;;;;4984876;28;20390;-60
2023/04/28 06:59:39;;;;;;;;;;;;;;;;;;4985371;28;19965;-60
2023/04/28 07:02:05;;;;;;;;;;;;;;;;;;4985808;28;20372;-62
2023/04/28 07:04:31;;;;;;;;;;;;;;;;;;4986135;28;19928;-60
2023/04/28 07:06:57;;;;;;;;;;;;;;;;;;4985383;28;19929;-60
2023/04/28 07:09:23;;;;;;;;;;;;;;;;;;4983471;28;19953;-60
2023/04/28 07:11:49;;;;;;;;;;;;;;;;;;4985020;28;20013;-60
2023/04/28 07:14:15;;;;;;;;;;;;;;;;;;4985128;28;20433;-60
2023/04/28 07:16:41;;;;;;;;;;;;;;;;;;4983632;28;20599;-61
2023/04/28 07:19:07;;;;;;;;;;;;;;;;;;4984265;28;19922;-61
2023/04/28 07:21:33;;;;;;;;;;;;;;;;;;4984419;28;20391;-60
2023/04/28 07:23:59;;;;;;;;;;;;;;;;;;4984202;28;19981;-60
2023/04/28 07:26:25;;;;;;;;;;;;;;;;;;4985304;28;20453;-60
2023/04/28 07:28:51;;;;;;;;;;;;;;;;;;4984446;28;20272;-60
2023/04/28 07:31:17;;;;;;;;;;;;;;;;;;4983434;28;20441;-60
2023/04/28 07:33:43;;;;;;;;;;;;;;;;;;4985052;28;19969;-61
2023/04/28 07:36:09;;;;;;;;;;;;;;;;;;4983329;28;19921;-61
2023/04/28 07:38:35;;;;;;;;;;;;;;;;;;4971109;28;20351;-61
2023/04/28 07:41:01;;;;;;;;;;;;;;;;;;4984208;28;20008;-60
2023/04/28 07:43:27;;;;;;;;;;;;;;;;;;4983776;28;19937;-61
2023/04/28 07:45:53;;;;;;;;;;;;;;;;;;4984982;28;20489;-60
2023/04/28 07:48:19;;;;;;;;;;;;;;;;;;4984768;28;19972;-60
2023/04/28 07:50:45;;;;;;;;;;;;;;;;;;4984700;28;19925;-60
2023/04/28 07:53:11;;;;;;;;;;;;;;;;;;4984579;28;20272;-60
2023/04/28 07:55:40;;;;;;;;;;;;;;;;;;4983774;28;20473;-61
2023/04/28 07:58:06;;;;;;;;;;;;;;;;;;4984743;28;19961;-60
2023/04/28 08:00:32;;;;;;;;;;;;;;;;;;4985259;28;19969;-61
2023/04/28 08:02:58;;;;;;;;;;;;;;;;;;4983128;28;20328;-61
2023/04/28 08:05:24;;;;;;;;;;;;;;;;;;4983389;28;19929;-60
2023/04/28 08:07:50;;;;;;;;;;;;;;;;;;4982969;28;19932;-60
2023/04/28 08:10:16;;;;;;;;;;;;;;;;;;4983686;28;20000;-61
2023/04/28 08:12:44;;;;;;;;;;;;;;;;;;4984263;28;19922;-61
2023/04/28 08:15:10;;;;;;;;;;;;;;;;;;4984130;28;19926;-60
2023/04/28 08:17:36;;;;;;;;;;;;;;;;;;4984449;28;19921;-61
2023/04/28 08:20:02;;;;;;;;;;;;;;;;;;4985265;28;19929;-60
2023/04/28 08:22:28;;;;;;;;;;;;;;;;;;4984498;28;19922;-61
2023/04/28 08:24:54;;;;;;;;;;;;;;;;;;4983525;28;20427;-60
2023/04/28 08:27:22;;;;;;;;;;;;;;;;;;4982700;28;19979;-61
2023/04/28 08:29:48;;;;;;;;;;;;;;;;;;4984177;28;19921;-61
2023/04/28 08:32:14;;;;;;;;;;;;;;;;;;4983535;28;19922;-61
2023/04/28 08:34:40;;;;;;;;;;;;;;;;;;4983890;28;20029;-61
2023/04/28 08:37:06;;;;;;;;;;;;;;;;;;4983159;28;20391;-61
2023/04/28 08:39:34;;;;;;;;;;;;;;;;;;4983847;28;19921;-61
2023/04/28 08:42:00;;;;;;;;;;;;;;;;;;4985011;28;20416;-61
2023/04/28 08:44:26;;;;;;;;;;;;;;;;;;4984313;28;19976;-61
2023/04/28 08:46:52;;;;;;;;;;;;;;;;;;4983597;28;19944;-61
2023/04/28 08:49:18;;;;;;;;;;;;;;;;;;4985994;28;19933;-60
2023/04/28 08:51:46;;;;;;;;;;;;;;;;;;4987921;28;19989;-61
2023/04/28 08:54:12;;;;;;;;;;;;;;;;;;4987182;28;19921;-61
2023/04/28 08:56:38;;;;;;;;;;;;;;;;;;4987805;28;20355;-61
2023/04/28 08:59:04;;;;;;;;;;;;;;;;;;4988506;28;19925;-61
2023/04/28 09:01:30;;;;;;;;;;;;;;;;;;4988603;28;19933;-60
2023/04/28 09:03:56;;;;;;;;;;;;;;;;;;4987413;28;19996;-61
2023/04/28 09:06:22;;;;;;;;;;;;;;;;;;4987557;28;20064;-60
2023/04/28 09:08:48;;;;;;;;;;;;;;;;;;4986777;28;19951;-61
2023/04/28 09:11:15;;;;;;;;;;;;;;;;;;4987835;28;19921;-60
2023/04/28 09:13:41;;;;;;;;;;;;;;;;;;4987479;28;20422;-61
2023/04/28 09:16:07;;;;;;;;;;;;;;;;;;4985976;28;20322;-61
2023/04/28 09:18:33;;;;;;;;;;;;;;;;;;4988070;28;20583;-60
2023/04/28 09:20:59;;;;;;;;;;;;;;;;;;4987261;28;19928;-61
2023/04/28 09:23:25;;;;;;;;;;;;;;;;;;4986708;28;19960;-60
2023/04/28 09:25:51;;;;;;;;;;;;;;;;;;4986909;28;19933;-61
2023/04/28 09:28:17;;;;;;;;;;;;;;;;;;4987400;28;20405;-61
2023/04/28 09:30:43;;;;;;;;;;;;;;;;;;4987670;28;19956;-61
2023/04/28 09:33:09;;;;;;;;;;;;;;;;;;4987295;28;20439;-61
2023/04/28 09:35:35;;;;;;;;;;;;;;;;;;4985824;28;19968;-61
2023/04/28 09:38:01;;;;;;;;;;;;;;;;;;4969870;28;19925;-61
2023/04/28 09:40:27;;;;;;;;;;;;;;;;;;4986739;28;19921;-61
2023/04/28 09:42:53;;;;;;;;;;;;;;;;;;4985839;28;19926;-61
2023/04/28 09:45:19;;;;;;;;;;;;;;;;;;4986918;28;19991;-61
2023/04/28 09:47:45;;;;;;;;;;;;;;;;;;4986946;28;19921;-61
2023/04/28 09:50:13;;;;;;;;;;;;;;;;;;4986801;28;20016;-61
2023/04/28 09:52:40;;;;;;;;;;;;;;;;;;4986495;28;19921;-61
2023/04/28 09:55:07;;;;;;;;;;;;;;;;;;4986026;28;19928;-61
2023/04/28 09:57:33;;;;;;;;;;;;;;;;;;4987170;28;19941;-61
2023/04/28 09:59:59;;;;;;;;;;;;;;;;;;4985230;28;19921;-61
2023/04/28 10:02:25;;;;;;;;;;;;;;;;;;4985487;28;19925;-60
2023/04/28 10:04:51;;;;;;;;;;;;;;;;;;4985902;28;20661;-61
2023/04/28 10:07:18;;;;;;;;;;;;;;;;;;4985233;28;19918;-61
2023/04/28 10:09:46;;;;;;;;;;;;;;;;;;4984411;28;19921;-60
2023/04/28 10:12:12;;;;;;;;;;;;;;;;;;4986334;28;20036;-61
2023/04/28 10:14:38;;;;;;;;;;;;;;;;;;4984827;28;20332;-61
2023/04/28 10:17:05;;;;;;;;;;;;;;;;;;4984877;28;19926;-61
2023/04/28 10:19:31;;;;;;;;;;;;;;;;;;4986718;28;19926;-61
2023/04/28 10:21:58;;;;;;;;;;;;;;;;;;4985095;28;19926;-61
2023/04/28 10:24:24;;;;;;;;;;;;;;;;;;4985042;28;19925;-61
2023/04/28 10:26:50;;;;;;;;;;;;;;;;;;4984872;28;19921;-61
2023/04/28 10:29:16;;;;;;;;;;;;;;;;;;4986368;28;20265;-61
2023/04/28 10:31:42;;;;;;;;;;;;;;;;;;4977831;28;19929;-61
2023/04/28 10:34:09;;;;;;;;;;;;;;;;;;4967596;28;19980;-61
2023/04/28 10:36:35;;;;;;;;;;;;;;;;;;4969826;28;19922;-63
2023/04/28 10:39:02;;;;;;;;;;;;;;;;;;4969457;28;20395;-61
2023/04/28 10:41:28;;;;;;;;;;;;;;;;;;4966382;28;19926;-61
2023/04/28 10:43:54;;;;;;;;;;;;;;;;;;4969918;28;19929;-61
2023/04/28 10:46:20;;;;;;;;;;;;;;;;;;4966602;28;19976;-60
2023/04/28 10:48:46;;;;;;;;;;;;;;;;;;4975835;28;19922;-61
2023/04/28 10:51:12;;;;;;;;;;;;;;;;;;4976307;28;20339;-60
2023/04/28 10:53:38;;;;;;;;;;;;;;;;;;4965118;28;19932;-60
2023/04/28 10:56:04;;;;;;;;;;;;;;;;;;4970241;28;19922;-60
2023/04/28 10:58:31;;;;;;;;;;;;;;;;;;4974568;28;20000;-60
2023/04/28 11:00:57;;;;;;;;;;;;;;;;;;4970239;28;20397;-60
2023/04/28 11:03:23;;;;;;;;;;;;;;;;;;4975295;28;20342;-60
2023/04/28 11:05:49;;;;;;;;;;;;;;;;;;4970833;28;19968;-60
2023/04/28 11:08:15;;;;;;;;;;;;;;;;;;4968997;28;19973;-61
2023/04/28 11:10:41;;;;;;;;;;;;;;;;;;4968438;28;19972;-60
2023/04/28 11:13:07;;;;;;;;;;;;;;;;;;4967196;28;19930;-60
2023/04/28 11:15:33;;;;;;;;;;;;;;;;;;4969416;28;19929;-60
2023/04/28 11:17:59;;;;;;;;;;;;;;;;;;4967283;28;20370;-60
2023/04/28 11:20:25;;;;;;;;;;;;;;;;;;4980717;28;19926;-60
2023/04/28 11:22:51;;;;;;;;;;;;;;;;;;4970101;28;19932;-60
2023/04/28 11:25:17;;;;;;;;;;;;;;;;;;4983891;28;19921;-60
2023/04/28 11:27:43;;;;;;;;;;;;;;;;;;4983712;28;19925;-60
2023/04/28 11:30:09;;;;;;;;;;;;;;;;;;4985439;28;20384;-60
2023/04/28 11:32:35;;;;;;;;;;;;;;;;;;4984831;28;19928;-61
2023/04/28 11:35:03;;;;;;;;;;;;;;;;;;4985435;28;20015;-60
2023/04/28 11:37:29;;;;;;;;;;;;;;;;;;4985135;28;19996;-60
2023/04/28 11:39:56;;;;;;;;;;;;;;;;;;4983426;28;20387;-60
2023/04/28 11:42:24;;;;;;;;;;;;;;;;;;4984922;28;19936;-61
2023/04/28 11:44:51;;;;;;;;;;;;;;;;;;4982710;28;19922;-61
2023/04/28 11:47:18;;;;;;;;;;;;;;;;;;4976869;28;19988;-61
2023/04/28 11:49:44;;;;;;;;;;;;;;;;;;4972980;28;19928;-61
2023/04/28 11:52:10;;;;;;;;;;;;;;;;;;4982372;28;19925;-61
2023/04/28 11:54:36;;;;;;;;;;;;;;;;;;4980184;28;20327;-61
2023/04/28 11:57:03;;;;;;;;;;;;;;;;;;4964499;28;20016;-60
2023/04/28 11:59:30;;;;;;;;;;;;;;;;;;4973655;28;20421;-61
2023/04/28 12:01:59;;;;;;;;;;;;;;;;;;4976167;28;19922;-60
2023/04/28 12:04:43;;;;;;;;;;;;;;;;;;4973178;28;19940;-61
2023/04/28 12:07:12;;;;;;;;;;;;;;;;;;4965706;28;19926;-61
2023/04/28 12:09:41;;;;;;;;;;;;;;;;;;4970487;28;19937;-61
2023/04/28 12:12:07;;;;;;;;;;;;;;;;;;4966268;28;19930;-61
2023/04/28 12:14:34;;;;;;;;;;;;;;;;;;4963747;28;19922;-61
2023/04/28 12:17:01;;;;;;;;;;;;;;;;;;4964087;28;19929;-60
2023/04/28 12:19:27;;;;;;;;;;;;;;;;;;4965959;28;20017;-60
2023/04/28 12:21:53;;;;;;;;;;;;;;;;;;4967080;28;19942;-60
2023/04/28 12:24:19;;;;;;;;;;;;;;;;;;4978716;28;19921;-61
2023/04/28 12:26:45;;;;;;;;;;;;;;;;;;4985726;28;19921;-61
2023/04/28 12:29:12;;;;;;;;;;;;;;;;;;4986696;28;19926;-61
2023/04/28 12:31:38;;;;;;;;;;;;;;;;;;4977301;28;19925;-62
2023/04/28 12:34:04;;;;;;;;;;;;;;;;;;4983151;28;20657;-61
2023/04/28 12:36:30;;;;;;;;;;;;;;;;;;4977272;28;20047;-61
2023/04/28 12:38:56;;;;;;;;;;;;;;;;;;4983315;28;19980;-62
2023/04/28 12:41:24;;;;;;;;;;;;;;;;;;4973763;28;20345;-61
2023/04/28 12:43:50;;;;;;;;;;;;;;;;;;4983324;28;19932;-61
2023/04/28 12:46:16;;;;;;;;;;;;;;;;;;4982545;28;20338;-61
2023/04/28 12:48:42;;;;;;;;;;;;;;;;;;4979441;28;20393;-61
2023/04/28 12:51:08;;;;;;;;;;;;;;;;;;4978363;28;19925;-61
2023/04/28 12:53:37;;;;;;;;;;;;;;;;;;4972117;28;19926;-61
2023/04/28 12:56:07;;;;;;;;;;;;;;;;;;4979194;28;20367;-61
2023/04/28 12:59:02;;;;;;;;;;;;;;;;;;4964409;28;19920;-60
2023/04/28 13:01:32;;;;;;;;;;;;;;;;;;4970154;28;19929;-60
2023/04/28 13:03:58;;;;;;;;;;;;;;;;;;4974939;28;20043;-61
2023/04/28 13:06:25;;;;;;;;;;;;;;;;;;4982862;28;19932;-61
2023/04/28 13:08:51;;;;;;;;;;;;;;;;;;4985237;28;19932;-63
2023/04/28 13:11:17;;;;;;;;;;;;;;;;;;4975931;28;19933;-62
2023/04/28 13:13:44;;;;;;;;;;;;;;;;;;4973618;28;19932;-62
2023/04/28 13:16:10;;;;;;;;;;;;;;;;;;4969762;28;19973;-61
2023/04/28 13:18:36;;;;;;;;;;;;;;;;;;4974820;28;19973;-62
2023/04/28 13:21:04;;;;;;;;;;;;;;;;;;4971941;28;19973;-62
2023/04/28 13:23:30;;;;;;;;;;;;;;;;;;4958271;28;20380;-62
2023/04/28 13:25:56;;;;;;;;;;;;;;;;;;4979810;28;20020;-62
2023/04/28 13:28:23;;;;;;;;;;;;;;;;;;4985964;28;20008;-61
2023/04/28 13:30:49;;;;;;;;;;;;;;;;;;4985411;28;19926;-61
2023/04/28 13:33:15;;;;;;;;;;;;;;;;;;4985085;28;19925;-61
2023/04/28 13:35:41;;;;;;;;;;;;;;;;;;4978104;28;20391;-61
2023/04/28 13:38:07;;;;;;;;;;;;;;;;;;4975962;28;20028;-61
2023/04/28 13:40:33;;;;;;;;;;;;;;;;;;4976210;28;19969;-61
2023/04/28 13:43:00;;;;;;;;;;;;;;;;;;4976717;28;19929;-62
2023/04/28 13:45:26;;;;;;;;;;;;;;;;;;4972911;28;19992;-61
2023/04/28 13:47:52;;;;;;;;;;;;;;;;;;4967373;28;19957;-63
2023/04/28 13:50:18;;;;;;;;;;;;;;;;;;4976693;28;19964;-61
2023/04/28 13:52:44;;;;;;;;;;;;;;;;;;4979421;28;20375;-63
2023/04/28 13:55:10;;;;;;;;;;;;;;;;;;4980579;28;20253;-61
2023/04/28 13:57:37;;;;;;;;;;;;;;;;;;4978913;28;20001;-62
2023/04/28 14:00:04;;;;;;;;;;;;;;;;;;4982354;28;19936;-62
2023/04/28 14:02:30;;;;;;;;;;;;;;;;;;4976817;28;20296;-61
2023/04/28 14:04:56;;;;;;;;;;;;;;;;;;4963857;28;19926;-62
2023/04/28 14:07:22;;;;;;;;;;;;;;;;;;4965646;28;20368;-62
2023/04/28 14:09:49;;;;;;;;;;;;;;;;;;4963117;28;20486;-62
2023/04/28 14:12:15;;;;;;;;;;;;;;;;;;4965088;28;19932;-61
2023/04/28 14:14:41;;;;;;;;;;;;;;;;;;4974243;28;20339;-67
2023/04/28 14:17:07;;;;;;;;;;;;;;;;;;4965283;28;19928;-66
2023/04/28 14:19:33;;;;;;;;;;;;;;;;;;4965636;28;20322;-67
2023/04/28 14:22:00;;;;;;;;;;;;;;;;;;4964963;28;20356;-68
2023/04/28 14:24:26;;;;;;;;;;;;;;;;;;4979752;28;19980;-67
2023/04/28 14:26:52;;;;;;;;;;;;;;;;;;4984315;28;19930;-67
2023/04/28 14:29:18;;;;;;;;;;;;;;;;;;4984461;28;20350;-66
2023/04/28 14:31:44;;;;;;;;;;;;;;;;;;4984307;28;19925;-67
2023/04/28 14:34:10;;;;;;;;;;;;;;;;;;4984821;28;20290;-68
2023/04/28 14:36:37;;;;;;;;;;;;;;;;;;4984079;28;20463;-67
2023/04/28 14:39:03;;;;;;;;;;;;;;;;;;4984043;28;20334;-68
2023/04/28 14:41:29;;;;;;;;;;;;;;;;;;4982438;28;20429;-68
2023/04/28 14:43:55;;;;;;;;;;;;;;;;;;4982598;28;19976;-68
2023/04/28 14:46:22;;;;;;;;;;;;;;;;;;4982642;28;19930;-67
2023/04/28 14:48:48;;;;;;;;;;;;;;;;;;4979056;28;20590;-67
2023/04/28 14:51:14;;;;;;;;;;;;;;;;;;4982748;28;19973;-67
2023/04/28 14:53:40;;;;;;;;;;;;;;;;;;4976124;28;19926;-66
2023/04/28 14:56:07;;;;;;;;;;;;;;;;;;4973855;28;19989;-66
2023/04/28 14:58:33;;;;;;;;;;;;;;;;;;4974331;28;19922;-66
2023/04/28 15:01:00;;;;;;;;;;;;;;;;;;4977828;28;19928;-66
2023/04/28 15:03:26;;;;;;;;;;;;;;;;;;4972977;28;19918;-67
2023/04/28 15:05:52;;;;;;;;;;;;;;;;;;4972347;28;19925;-65
2023/04/28 15:08:18;;;;;;;;;;;;;;;;;;4975951;28;19926;-64
2023/04/28 15:10:44;;;;;;;;;;;;;;;;;;4973179;28;20327;-64
2023/04/28 15:13:10;;;;;;;;;;;;;;;;;;4974520;28;19926;-63
2023/04/28 15:15:36;;;;;;;;;;;;;;;;;;4968194;28;20088;-65
2023/04/28 15:18:03;;;;;;;;;;;;;;;;;;4969500;28;20008;-65
2023/04/28 15:20:29;;;;;;;;;;;;;;;;;;4969327;28;19922;-63
2023/04/28 15:22:55;;;;;;;;;;;;;;;;;;4967488;28;20354;-63
2023/04/28 15:25:21;;;;;;;;;;;;;;;;;;4978698;28;19922;-62
2023/04/28 15:27:49;;;;;;;;;;;;;;;;;;4985504;28;19967;-64
2023/04/28 15:30:15;;;;;;;;;;;;;;;;;;4985529;28;19932;-64
2023/04/28 15:32:41;;;;;;;;;;;;;;;;;;4985492;28;19973;-65
2023/04/28 15:35:09;;;;;;;;;;;;;;;;;;4985564;28;19967;-65
2023/04/28 15:37:35;;;;;;;;;;;;;;;;;;4984513;28;19921;-65
2023/04/28 15:40:01;;;;;;;;;;;;;;;;;;4985318;28;19927;-64
2023/04/28 15:42:27;;;;;;;;;;;;;;;;;;4985100;28;20291;-65
2023/04/28 15:44:53;;;;;;;;;;;;;;;;;;4984807;28;20001;-65
2023/04/28 15:47:19;;;;;;;;;;;;;;;;;;4985318;28;19922;-64
2023/04/28 15:49:46;;;;;;;;;;;;;;;;;;4983451;28;19921;-64
2023/04/28 15:52:12;;;;;;;;;;;;;;;;;;4982832;28;19952;-63
2023/04/28 15:54:39;;;;;;;;;;;;;;;;;;4981201;28;19922;-63
2023/04/28 15:57:05;;;;;;;;;;;;;;;;;;4981831;28;19926;-63
2023/04/28 15:59:32;;;;;;;;;;;;;;;;;;4968641;28;19926;-63
2023/04/28 16:01:58;;;;;;;;;;;;;;;;;;4964414;28;19933;-63
2023/04/28 16:04:24;;;;;;;;;;;;;;;;;;4967430;28;19918;-63
2023/04/28 16:06:51;;;;;;;;;;;;;;;;;;4966489;28;19969;-63
2023/04/28 16:09:17;;;;;;;;;;;;;;;;;;4973709;28;20335;-64
2023/04/28 16:11:43;;;;;;;;;;;;;;;;;;4980824;28;19957;-63
2023/04/28 16:14:09;;;;;;;;;;;;;;;;;;4980003;28;19968;-63
2023/04/28 16:16:35;;;;;;;;;;;;;;;;;;4979259;28;19936;-63
2023/04/28 16:19:01;;;;;;;;;;;;;;;;;;4971698;28;20017;-62
2023/04/28 16:21:27;;;;;;;;;;;;;;;;;;4968257;28;19932;-63
2023/04/28 16:23:53;;;;;;;;;;;;;;;;;;4979439;28;19975;-63
2023/04/28 16:26:20;;;;;;;;;;;;;;;;;;4984474;28;19926;-63
2023/04/28 16:28:46;;;;;;;;;;;;;;;;;;4975423;28;20384;-63
2023/04/28 16:31:12;;;;;;;;;;;;;;;;;;4970429;28;19922;-63
2023/04/28 16:33:38;;;;;;;;;;;;;;;;;;4968617;28;19928;-63
2023/04/28 16:36:05;;;;;;;;;;;;;;;;;;4973743;28;20008;-63
2023/04/28 16:38:31;;;;;;;;;;;;;;;;;;4969270;28;20300;-63
2023/04/28 16:40:57;;;;;;;;;;;;;;;;;;4971711;28;19922;-63